createdAt,value
2023-02-05T00:00:30.317Z,8.00
2023-02-05T00:01:30.274Z,8.02
2023-02-05T00:02:30.254Z,7.99
2023-02-05T00:03:30.155Z,8.00
2023-02-05T00:04:30.084Z,8.00
2023-02-05T00:05:30.013Z,8.07
2023-02-05T00:06:29.952Z,8.02
2023-02-05T00:07:29.885Z,8.00
2023-02-05T00:08:29.830Z,8.02
2023-02-05T00:09:29.763Z,7.96
2023-02-05T00:10:29.704Z,8.00
2023-02-05T00:11:29.650Z,8.02
2023-02-05T00:12:29.589Z,7.93
2023-02-05T00:13:29.530Z,8.03
2023-02-05T00:14:29.468Z,7.97
2023-02-05T00:15:29.407Z,8.02
2023-02-05T00:16:29.350Z,7.99
2023-02-05T00:17:29.291Z,7.97
2023-02-05T00:18:29.220Z,8.02
2023-02-05T00:19:29.165Z,7.97
2023-02-05T00:20:29.104Z,8.02
2023-02-05T00:21:29.039Z,8.03
2023-02-05T00:22:28.982Z,7.99
2023-02-05T00:23:28.936Z,8.02
2023-02-05T00:24:28.856Z,7.93
2023-02-05T00:25:28.797Z,7.97
2023-02-05T00:26:28.738Z,7.99
2023-02-05T00:27:28.686Z,7.97
2023-02-05T00:28:28.618Z,7.97
2023-02-05T00:29:28.572Z,7.96
2023-02-05T00:30:28.546Z,8.03
2023-02-05T00:31:28.564Z,7.94
2023-02-05T00:32:28.369Z,7.97
2023-02-05T00:33:28.334Z,7.97
2023-02-05T00:34:28.250Z,8.02
2023-02-05T00:35:28.200Z,7.99
2023-02-05T00:36:28.128Z,7.94
2023-02-05T00:37:28.074Z,7.99
2023-02-05T00:38:28.008Z,7.97
2023-02-05T00:39:27.945Z,7.96
2023-02-05T00:40:27.881Z,7.94
2023-02-05T00:41:27.827Z,7.97
2023-02-05T00:42:27.760Z,8.02
2023-02-05T00:43:27.711Z,7.92
2023-02-05T00:44:27.638Z,8.00
2023-02-05T00:45:27.579Z,7.97
2023-02-05T00:46:27.573Z,7.96
2023-02-05T00:47:27.460Z,7.90
2023-02-05T00:48:27.396Z,7.97
2023-02-05T00:49:27.340Z,7.92
2023-02-05T00:50:27.280Z,7.96
2023-02-05T00:51:27.219Z,7.97
2023-02-05T00:52:27.174Z,8.00
2023-02-05T00:53:27.096Z,7.97
2023-02-05T00:54:27.041Z,7.97
2023-02-05T00:55:26.992Z,7.94
2023-02-05T00:56:26.916Z,7.97
2023-02-05T00:57:26.858Z,7.94
2023-02-05T00:58:26.819Z,7.93
2023-02-05T00:59:26.735Z,7.97
2023-02-05T01:00:26.668Z,7.94
2023-02-05T01:01:26.821Z,7.94
2023-02-05T01:02:26.566Z,8.02
2023-02-05T01:03:26.605Z,7.93
2023-02-05T01:04:26.425Z,7.96
2023-02-05T01:05:26.367Z,7.90
2023-02-05T01:06:26.306Z,7.96
2023-02-05T01:07:26.255Z,7.93
2023-02-05T01:08:26.187Z,7.92
2023-02-05T01:09:26.132Z,7.92
2023-02-05T01:10:26.070Z,7.93
2023-02-05T01:11:26.009Z,7.89
2023-02-05T01:12:25.967Z,7.92
2023-02-05T01:13:25.886Z,7.92
2023-02-05T01:14:25.823Z,7.90
2023-02-05T01:15:25.773Z,7.92
2023-02-05T01:16:25.704Z,7.94
2023-02-05T01:17:25.659Z,7.93
2023-02-05T01:18:25.585Z,7.94
2023-02-05T01:19:25.525Z,7.96
2023-02-05T01:20:25.468Z,7.93
2023-02-05T01:21:25.404Z,7.93
2023-02-05T01:22:25.342Z,7.92
2023-02-05T01:23:25.291Z,7.92
2023-02-05T01:24:25.218Z,7.99
2023-02-05T01:25:25.165Z,7.92
2023-02-05T01:26:25.102Z,7.92
2023-02-05T01:27:25.037Z,7.97
2023-02-05T01:28:24.983Z,7.96
2023-02-05T01:29:24.923Z,7.93
2023-02-05T01:30:24.861Z,7.92
2023-02-05T01:31:24.904Z,7.93
2023-02-05T01:32:24.733Z,7.92
2023-02-05T01:33:24.681Z,7.90
2023-02-05T01:34:24.639Z,7.93
2023-02-05T01:35:24.556Z,7.96
2023-02-05T01:36:24.493Z,7.96
2023-02-05T01:37:24.439Z,7.90
2023-02-05T01:38:24.372Z,7.93
2023-02-05T01:39:24.323Z,7.96
2023-02-05T01:40:24.255Z,7.96
2023-02-05T01:41:24.187Z,7.92
2023-02-05T01:42:24.128Z,7.92
2023-02-05T01:43:24.069Z,7.99
2023-02-05T01:44:24.001Z,7.96
2023-02-05T01:45:23.938Z,7.93
2023-02-05T01:46:23.952Z,7.96
2023-02-05T01:47:23.833Z,7.92
2023-02-05T01:48:23.773Z,7.87
2023-02-05T01:49:23.702Z,7.96
2023-02-05T01:50:23.639Z,7.94
2023-02-05T01:51:23.579Z,7.92
2023-02-05T01:52:23.574Z,7.89
2023-02-05T01:53:23.453Z,7.87
2023-02-05T01:54:23.390Z,7.94
2023-02-05T01:55:23.330Z,7.93
2023-02-05T01:56:23.273Z,7.96
2023-02-05T01:57:23.213Z,7.92
2023-02-05T01:58:23.145Z,7.92
2023-02-05T01:59:23.092Z,7.93
2023-02-05T02:00:23.031Z,7.87
2023-02-05T02:01:23.021Z,7.93
2023-02-05T02:02:22.902Z,8.00
2023-02-05T02:03:22.855Z,7.96
2023-02-05T02:04:22.783Z,7.90
2023-02-05T02:05:22.766Z,7.97
2023-02-05T02:06:22.665Z,7.97
2023-02-05T02:07:22.615Z,7.97
2023-02-05T02:08:22.544Z,7.92
2023-02-05T02:09:22.479Z,7.96
2023-02-05T02:10:22.420Z,7.92
2023-02-05T02:11:22.362Z,7.97
2023-02-05T02:12:22.303Z,7.96
2023-02-05T02:13:22.245Z,7.94
2023-02-05T02:14:22.177Z,7.94
2023-02-05T02:15:22.128Z,7.93
2023-02-05T02:16:22.129Z,7.97
2023-02-05T02:17:22.001Z,7.85
2023-02-05T02:18:21.938Z,7.84
2023-02-05T02:19:21.884Z,7.89
2023-02-05T02:20:21.817Z,7.94
2023-02-05T02:21:21.759Z,7.96
2023-02-05T02:22:36.441Z,7.92
2023-02-05T02:23:21.635Z,7.87
2023-02-05T02:24:21.573Z,7.94
2023-02-05T02:25:21.518Z,7.92
2023-02-05T02:26:21.447Z,7.90
2023-02-05T02:27:21.404Z,7.90
2023-02-05T02:28:21.328Z,7.90
2023-02-05T02:29:21.268Z,7.87
2023-02-05T02:30:21.329Z,7.89
2023-02-05T02:31:21.159Z,7.82
2023-02-05T02:32:21.087Z,7.89
2023-02-05T02:33:21.035Z,7.85
2023-02-05T02:34:20.964Z,7.89
2023-02-05T02:35:20.922Z,7.87
2023-02-05T02:36:20.847Z,7.90
2023-02-05T02:37:20.780Z,7.94
2023-02-05T02:38:20.715Z,7.89
2023-02-05T02:39:20.663Z,7.85
2023-02-05T02:40:20.596Z,7.85
2023-02-05T02:41:20.543Z,7.90
2023-02-05T02:42:35.454Z,7.89
2023-02-05T02:43:20.416Z,7.89
2023-02-05T02:44:20.359Z,7.84
2023-02-05T02:45:20.351Z,7.89
2023-02-05T02:46:20.260Z,7.84
2023-02-05T02:47:20.187Z,7.87
2023-02-05T02:48:20.125Z,7.89
2023-02-05T02:49:20.058Z,7.85
2023-02-05T02:50:19.999Z,7.85
2023-02-05T02:51:19.947Z,7.84
2023-02-05T02:52:19.873Z,7.93
2023-02-05T02:53:19.819Z,7.84
2023-02-05T02:54:19.759Z,7.85
2023-02-05T02:55:19.693Z,7.90
2023-02-05T02:56:19.638Z,7.85
2023-02-05T02:57:19.570Z,7.85
2023-02-05T02:58:19.514Z,7.85
2023-02-05T02:59:19.451Z,7.85
2023-02-05T03:00:19.397Z,7.84
2023-02-05T03:01:19.339Z,7.82
2023-02-05T03:02:19.267Z,7.87
2023-02-05T03:03:19.208Z,7.85
2023-02-05T03:04:19.151Z,7.89
2023-02-05T03:05:19.089Z,7.84
2023-02-05T03:06:19.962Z,7.82
2023-02-05T03:07:18.982Z,7.87
2023-02-05T03:08:18.906Z,7.84
2023-02-05T03:09:18.859Z,7.84
2023-02-05T03:10:18.788Z,7.85
2023-02-05T03:11:18.731Z,7.84
2023-02-05T03:12:18.662Z,7.81
2023-02-05T03:13:18.604Z,7.74
2023-02-05T03:14:18.546Z,7.85
2023-02-05T03:15:18.490Z,7.84
2023-02-05T03:16:18.470Z,7.85
2023-02-05T03:17:18.362Z,7.84
2023-02-05T03:18:18.303Z,7.79
2023-02-05T03:19:18.241Z,7.84
2023-02-05T03:20:18.179Z,7.82
2023-02-05T03:21:18.118Z,7.85
2023-02-05T03:22:18.054Z,7.84
2023-02-05T03:23:18.008Z,7.87
2023-02-05T03:24:17.935Z,7.89
2023-02-05T03:25:17.870Z,7.82
2023-02-05T03:26:17.811Z,7.82
2023-02-05T03:27:17.752Z,7.71
2023-02-05T03:28:17.693Z,7.79
2023-02-05T03:29:17.650Z,7.81
2023-02-05T03:30:17.579Z,7.81
2023-02-05T03:31:17.578Z,7.77
2023-02-05T03:32:17.449Z,7.92
2023-02-05T03:33:17.390Z,7.77
2023-02-05T03:34:17.330Z,7.84
2023-02-05T03:35:17.263Z,7.79
2023-02-05T03:36:17.219Z,7.75
2023-02-05T03:37:17.149Z,7.82
2023-02-05T03:38:17.082Z,7.78
2023-02-05T03:39:17.032Z,7.79
2023-02-05T03:40:16.960Z,7.78
2023-02-05T03:41:16.897Z,7.87
2023-02-05T03:42:16.847Z,7.87
2023-02-05T03:43:16.776Z,7.77
2023-02-05T03:44:16.717Z,7.71
2023-02-05T03:45:16.665Z,7.72
2023-02-05T03:46:16.596Z,7.79
2023-02-05T03:47:16.543Z,7.78
2023-02-05T03:48:16.476Z,7.78
2023-02-05T03:49:16.420Z,7.75
2023-02-05T03:50:16.358Z,7.78
2023-02-05T03:51:16.296Z,7.78
2023-02-05T03:52:16.230Z,7.79
2023-02-05T03:53:16.171Z,7.78
2023-02-05T03:54:16.111Z,7.74
2023-02-05T03:55:16.055Z,7.75
2023-02-05T03:56:15.993Z,7.72
2023-02-05T03:57:15.931Z,7.79
2023-02-05T03:58:15.862Z,7.85
2023-02-05T03:59:15.807Z,7.84
2023-02-05T04:00:15.760Z,7.71
2023-02-05T04:01:15.835Z,7.78
2023-02-05T04:02:30.536Z,7.75
2023-02-05T04:03:15.565Z,7.78
2023-02-05T04:04:15.503Z,7.71
2023-02-05T04:05:15.437Z,7.74
2023-02-05T04:06:15.375Z,7.77
2023-02-05T04:07:15.312Z,7.71
2023-02-05T04:08:15.251Z,7.72
2023-02-05T04:09:15.201Z,7.78
2023-02-05T04:10:15.132Z,7.78
2023-02-05T04:11:15.080Z,7.71
2023-02-05T04:12:15.012Z,7.77
2023-02-05T04:13:14.946Z,7.74
2023-02-05T04:14:14.888Z,7.82
2023-02-05T04:15:14.842Z,7.77
2023-02-05T04:16:14.789Z,7.74
2023-02-05T04:17:14.703Z,7.82
2023-02-05T04:18:14.647Z,7.71
2023-02-05T04:19:14.586Z,7.74
2023-02-05T04:20:14.534Z,7.71
2023-02-05T04:21:14.465Z,7.74
2023-02-05T04:22:14.403Z,7.75
2023-02-05T04:23:14.380Z,7.74
2023-02-05T04:24:14.295Z,7.69
2023-02-05T04:25:14.219Z,7.74
2023-02-05T04:26:14.180Z,7.74
2023-02-05T04:27:14.103Z,7.75
2023-02-05T04:28:14.136Z,7.75
2023-02-05T04:29:13.976Z,7.79
2023-02-05T04:30:13.924Z,7.74
2023-02-05T04:31:13.854Z,7.81
2023-02-05T04:32:13.794Z,7.67
2023-02-05T04:33:13.740Z,7.74
2023-02-05T04:34:13.686Z,7.72
2023-02-05T04:35:13.617Z,7.77
2023-02-05T04:36:13.559Z,7.81
2023-02-05T04:37:13.491Z,7.75
2023-02-05T04:38:13.432Z,7.74
2023-02-05T04:39:13.386Z,7.79
2023-02-05T04:40:13.312Z,7.74
2023-02-05T04:41:13.258Z,7.69
2023-02-05T04:42:13.196Z,7.81
2023-02-05T04:43:13.148Z,7.71
2023-02-05T04:44:13.073Z,7.75
2023-02-05T04:45:13.009Z,7.71
2023-02-05T04:46:12.984Z,7.79
2023-02-05T04:47:12.886Z,7.69
2023-02-05T04:48:12.832Z,7.81
2023-02-05T04:49:12.762Z,7.74
2023-02-05T04:50:12.725Z,7.81
2023-02-05T04:51:12.642Z,7.72
2023-02-05T04:52:12.583Z,7.81
2023-02-05T04:53:12.521Z,7.78
2023-02-05T04:54:12.462Z,7.77
2023-02-05T04:55:12.397Z,7.67
2023-02-05T04:56:12.341Z,7.69
2023-02-05T04:57:12.982Z,7.69
2023-02-05T04:58:12.217Z,7.71
2023-02-05T04:59:12.170Z,7.69
2023-02-05T05:00:12.100Z,7.66
2023-02-05T05:01:12.072Z,7.77
2023-02-05T05:02:12.014Z,7.77
2023-02-05T05:03:11.911Z,7.72
2023-02-05T05:04:11.858Z,7.82
2023-02-05T05:05:11.800Z,7.78
2023-02-05T05:06:11.738Z,7.78
2023-02-05T05:07:11.670Z,7.71
2023-02-05T05:08:11.614Z,7.78
2023-02-05T05:09:11.550Z,7.78
2023-02-05T05:10:17.986Z,7.72
2023-02-05T05:11:11.432Z,7.75
2023-02-05T05:12:11.370Z,7.75
2023-02-05T05:13:11.310Z,7.69
2023-02-05T05:14:11.253Z,7.72
2023-02-05T05:15:11.195Z,7.75
2023-02-05T05:16:11.182Z,7.79
2023-02-05T05:17:11.063Z,7.74
2023-02-05T05:18:10.999Z,7.77
2023-02-05T05:19:10.938Z,7.72
2023-02-05T05:20:10.891Z,7.77
2023-02-05T05:21:10.820Z,7.77
2023-02-05T05:22:10.767Z,7.78
2023-02-05T05:23:10.701Z,7.78
2023-02-05T05:24:10.646Z,7.75
2023-02-05T05:25:10.578Z,7.71
2023-02-05T05:26:10.512Z,7.69
2023-02-05T05:27:10.451Z,7.75
2023-02-05T05:28:10.442Z,7.75
2023-02-05T05:29:10.337Z,7.75
2023-02-05T05:30:10.277Z,7.78
2023-02-05T05:31:10.281Z,7.75
2023-02-05T05:32:10.195Z,7.66
2023-02-05T05:33:10.089Z,7.75
2023-02-05T05:34:10.031Z,7.69
2023-02-05T05:35:09.971Z,7.75
2023-02-05T05:36:09.907Z,7.63
2023-02-05T05:37:09.845Z,7.69
2023-02-05T05:38:09.785Z,7.66
2023-02-05T05:39:09.727Z,7.60
2023-02-05T05:40:09.671Z,7.69
2023-02-05T05:41:09.604Z,7.75
2023-02-05T05:42:09.548Z,7.67
2023-02-05T05:43:09.481Z,7.62
2023-02-05T05:44:09.422Z,7.74
2023-02-05T05:45:09.362Z,7.66
2023-02-05T05:46:09.324Z,7.62
2023-02-05T05:47:09.243Z,7.66
2023-02-05T05:48:09.173Z,7.72
2023-02-05T05:49:09.123Z,7.72
2023-02-05T05:50:09.060Z,7.60
2023-02-05T05:51:08.995Z,7.62
2023-02-05T05:52:08.942Z,7.63
2023-02-05T05:53:08.872Z,7.62
2023-02-05T05:54:08.820Z,7.62
2023-02-05T05:55:08.750Z,7.62
2023-02-05T05:56:08.695Z,7.66
2023-02-05T05:57:08.629Z,7.63
2023-02-05T05:58:08.562Z,7.60
2023-02-05T05:59:08.504Z,7.62
2023-02-05T06:00:08.448Z,7.66
2023-02-05T06:01:08.385Z,7.58
2023-02-05T06:02:08.393Z,7.71
2023-02-05T06:03:08.269Z,7.67
2023-02-05T06:04:08.201Z,7.66
2023-02-05T06:05:08.136Z,7.71
2023-02-05T06:06:08.080Z,7.63
2023-02-05T06:07:08.016Z,7.62
2023-02-05T06:08:07.951Z,7.67
2023-02-05T06:09:07.890Z,7.63
2023-02-05T06:10:07.835Z,7.63
2023-02-05T06:11:07.789Z,7.67
2023-02-05T06:12:07.713Z,7.71
2023-02-05T06:13:07.652Z,7.66
2023-02-05T06:14:07.587Z,7.63
2023-02-05T06:15:07.538Z,7.66
2023-02-05T06:16:07.533Z,7.63
2023-02-05T06:17:07.433Z,7.62
2023-02-05T06:18:07.341Z,7.66
2023-02-05T06:19:07.301Z,7.67
2023-02-05T06:20:07.222Z,7.60
2023-02-05T06:21:07.163Z,7.67
2023-02-05T06:22:07.101Z,7.62
2023-02-05T06:23:07.040Z,7.58
2023-02-05T06:24:06.984Z,7.69
2023-02-05T06:25:06.918Z,7.63
2023-02-05T06:26:06.865Z,7.71
2023-02-05T06:27:06.797Z,7.63
2023-02-05T06:28:06.802Z,7.66
2023-02-05T06:29:06.688Z,7.62
2023-02-05T06:30:06.620Z,7.55
2023-02-05T06:31:06.648Z,7.62
2023-02-05T06:32:06.496Z,7.60
2023-02-05T06:33:06.430Z,7.59
2023-02-05T06:34:06.371Z,7.63
2023-02-05T06:35:06.322Z,7.53
2023-02-05T06:36:06.288Z,7.62
2023-02-05T06:37:06.186Z,7.62
2023-02-05T06:38:06.132Z,7.63
2023-02-05T06:39:06.066Z,7.63
2023-02-05T06:40:06.006Z,7.62
2023-02-05T06:41:05.946Z,7.59
2023-02-05T06:42:05.886Z,7.60
2023-02-05T06:43:05.824Z,7.56
2023-02-05T06:44:05.760Z,7.59
2023-02-05T06:45:05.698Z,7.59
2023-02-05T06:46:05.640Z,7.56
2023-02-05T06:47:05.581Z,7.53
2023-02-05T06:48:05.518Z,7.63
2023-02-05T06:49:05.454Z,7.60
2023-02-05T06:50:05.393Z,7.60
2023-02-05T06:51:05.341Z,7.59
2023-02-05T06:52:05.279Z,7.59
2023-02-05T06:53:05.210Z,7.60
2023-02-05T06:54:05.157Z,7.62
2023-02-05T06:55:05.091Z,7.62
2023-02-05T06:56:05.029Z,7.59
2023-02-05T06:57:04.984Z,7.66
2023-02-05T06:58:04.907Z,7.55
2023-02-05T06:59:04.847Z,7.58
2023-02-05T07:00:04.791Z,7.62
2023-02-05T07:01:04.729Z,7.62
2023-02-05T07:02:04.668Z,7.56
2023-02-05T07:03:05.526Z,7.59
2023-02-05T07:04:04.544Z,7.60
2023-02-05T07:05:04.484Z,7.59
2023-02-05T07:06:04.433Z,7.59
2023-02-05T07:07:04.376Z,7.62
2023-02-05T07:08:04.301Z,7.67
2023-02-05T07:09:04.242Z,7.60
2023-02-05T07:10:04.184Z,7.60
2023-02-05T07:11:04.123Z,7.59
2023-02-05T07:12:04.067Z,7.58
2023-02-05T07:13:05.851Z,7.60
2023-02-05T07:14:03.939Z,7.62
2023-02-05T07:15:03.881Z,7.56
2023-02-05T07:16:03.846Z,7.56
2023-02-05T07:17:03.763Z,7.59
2023-02-05T07:18:03.702Z,7.58
2023-02-05T07:19:03.631Z,7.59
2023-02-05T07:20:03.577Z,7.56
2023-02-05T07:21:03.510Z,7.56
2023-02-05T07:22:03.450Z,7.56
2023-02-05T07:23:03.396Z,7.60
2023-02-05T07:24:03.328Z,7.60
2023-02-05T07:25:04.597Z,7.53
2023-02-05T07:26:03.204Z,7.60
2023-02-05T07:27:03.145Z,7.53
2023-02-05T07:28:03.135Z,7.56
2023-02-05T07:29:03.038Z,7.59
2023-02-05T07:30:02.960Z,7.58
2023-02-05T07:31:02.976Z,7.56
2023-02-05T07:32:02.928Z,7.55
2023-02-05T07:33:02.783Z,7.56
2023-02-05T07:34:02.717Z,7.55
2023-02-05T07:35:02.660Z,7.52
2023-02-05T07:36:02.598Z,7.58
2023-02-05T07:37:02.588Z,7.52
2023-02-05T07:38:02.493Z,7.58
2023-02-05T07:39:02.426Z,7.59
2023-02-05T07:40:02.351Z,7.55
2023-02-05T07:41:02.288Z,7.53
2023-02-05T07:42:02.236Z,7.52
2023-02-05T07:43:02.174Z,7.53
2023-02-05T07:44:02.103Z,7.66
2023-02-05T07:45:09.020Z,7.55
2023-02-05T07:46:01.982Z,7.52
2023-02-05T07:47:01.923Z,7.52
2023-02-05T07:48:01.860Z,7.52
2023-02-05T07:49:01.798Z,7.53
2023-02-05T07:50:01.736Z,7.55
2023-02-05T07:51:01.681Z,7.55
2023-02-05T07:52:01.612Z,7.59
2023-02-05T07:53:01.584Z,7.59
2023-02-05T07:54:01.502Z,7.59
2023-02-05T07:55:01.460Z,7.55
2023-02-05T07:56:01.375Z,7.58
2023-02-05T07:57:01.321Z,7.55
2023-02-05T07:58:01.252Z,7.58
2023-02-05T07:59:01.184Z,7.60
2023-02-05T08:00:01.128Z,7.59
2023-02-05T08:01:01.195Z,7.60
2023-02-05T08:02:01.012Z,7.59
2023-02-05T08:03:00.946Z,7.55
2023-02-05T08:04:00.925Z,7.62
2023-02-05T08:05:00.825Z,7.55
2023-02-05T08:06:00.757Z,7.55
2023-02-05T08:07:00.704Z,7.53
2023-02-05T08:08:00.652Z,7.55
2023-02-05T08:09:00.581Z,7.56
2023-02-05T08:10:00.529Z,7.56
2023-02-05T08:11:00.470Z,7.56
2023-02-05T08:12:00.403Z,7.53
2023-02-05T08:13:00.333Z,7.59
2023-02-05T08:14:00.272Z,7.55
2023-02-05T08:15:03.035Z,7.53
2023-02-05T08:16:00.188Z,7.56
2023-02-05T08:17:00.099Z,7.59
2023-02-05T08:18:00.030Z,7.56
2023-02-05T08:18:59.981Z,7.55
2023-02-05T08:19:59.903Z,7.56
2023-02-05T08:20:59.846Z,7.55
2023-02-05T08:21:59.789Z,7.59
2023-02-05T08:22:59.724Z,7.58
2023-02-05T08:23:59.660Z,7.60
2023-02-05T08:24:59.602Z,7.53
2023-02-05T08:25:59.537Z,7.63
2023-02-05T08:26:59.487Z,7.52
2023-02-05T08:27:59.445Z,7.53
2023-02-05T08:28:59.360Z,7.52
2023-02-05T08:29:59.294Z,7.58
2023-02-05T08:30:59.294Z,7.52
2023-02-05T08:31:59.240Z,7.58
2023-02-05T08:32:59.119Z,7.58
2023-02-05T08:33:59.050Z,7.55
2023-02-05T08:34:59.002Z,7.56
2023-02-05T08:35:58.930Z,7.56
2023-02-05T08:36:58.881Z,7.55
2023-02-05T08:37:58.808Z,7.58
2023-02-05T08:38:58.748Z,7.60
2023-02-05T08:39:58.683Z,7.58
2023-02-05T08:40:58.633Z,7.58
2023-02-05T08:41:58.566Z,7.62
2023-02-05T08:42:58.516Z,7.58
2023-02-05T08:43:58.454Z,7.59
2023-02-05T08:44:58.424Z,7.58
2023-02-05T08:45:58.354Z,7.59
2023-02-05T08:46:58.268Z,7.52
2023-02-05T08:47:58.199Z,7.58
2023-02-05T08:48:58.148Z,7.58
2023-02-05T08:49:58.076Z,7.55
2023-02-05T08:50:58.020Z,7.59
2023-02-05T08:51:57.951Z,7.58
2023-02-05T08:52:57.892Z,7.52
2023-02-05T08:53:57.835Z,7.58
2023-02-05T08:54:57.774Z,7.58
2023-02-05T08:55:57.714Z,7.58
2023-02-05T08:56:57.652Z,7.47
2023-02-05T08:57:57.589Z,7.55
2023-02-05T08:58:57.558Z,7.53
2023-02-05T08:59:57.465Z,7.60
2023-02-05T09:00:57.420Z,7.56
2023-02-05T09:01:57.342Z,7.58
2023-02-05T09:02:57.289Z,7.55
2023-02-05T09:03:57.229Z,7.56
2023-02-05T09:05:07.954Z,7.58
2023-02-05T09:05:57.101Z,7.52
2023-02-05T09:06:57.047Z,7.56
2023-02-05T09:07:56.981Z,7.56
2023-02-05T09:08:56.921Z,7.56
2023-02-05T09:09:56.857Z,7.56
2023-02-05T09:10:56.794Z,7.58
2023-02-05T09:11:56.739Z,7.58
2023-02-05T09:12:56.676Z,7.59
2023-02-05T09:13:56.613Z,7.58
2023-02-05T09:14:56.557Z,7.60
2023-02-05T09:15:56.487Z,7.55
2023-02-05T09:16:56.449Z,7.55
2023-02-05T09:17:56.373Z,7.55
2023-02-05T09:18:56.308Z,7.53
2023-02-05T09:19:56.259Z,7.58
2023-02-05T09:20:56.184Z,7.53
2023-02-05T09:21:56.131Z,7.53
2023-02-05T09:22:56.063Z,7.59
2023-02-05T09:23:56.007Z,7.56
2023-02-05T09:24:55.942Z,7.55
2023-02-05T09:25:55.888Z,7.56
2023-02-05T09:27:10.550Z,7.60
2023-02-05T09:27:55.774Z,7.53
2023-02-05T09:28:55.700Z,7.58
2023-02-05T09:29:55.660Z,7.67
2023-02-05T09:30:55.658Z,7.63
2023-02-05T09:31:55.514Z,7.56
2023-02-05T09:32:55.462Z,7.55
2023-02-05T09:33:55.402Z,7.53
2023-02-05T09:34:55.334Z,7.56
2023-02-05T09:35:55.280Z,7.60
2023-02-05T09:36:55.218Z,7.56
2023-02-05T09:37:55.153Z,7.56
2023-02-05T09:39:05.005Z,7.55
2023-02-05T09:40:22.265Z,7.62
2023-02-05T09:40:54.968Z,7.58
2023-02-05T09:41:54.913Z,7.56
2023-02-05T09:42:54.954Z,7.56
2023-02-05T09:43:54.788Z,7.58
2023-02-05T09:44:54.731Z,7.63
2023-02-05T09:45:54.687Z,7.59
2023-02-05T09:46:54.613Z,7.60
2023-02-05T09:47:54.554Z,7.62
2023-02-05T09:48:54.484Z,7.59
2023-02-05T09:49:54.423Z,7.59
2023-02-05T09:50:54.373Z,7.56
2023-02-05T09:51:54.302Z,7.59
2023-02-05T09:52:54.244Z,7.63
2023-02-05T09:53:54.175Z,7.59
2023-02-05T09:54:54.111Z,7.66
2023-02-05T09:55:54.056Z,7.56
2023-02-05T09:56:53.994Z,7.58
2023-02-05T09:57:53.931Z,7.59
2023-02-05T09:58:53.868Z,7.56
2023-02-05T09:59:53.808Z,7.55
2023-02-05T10:00:53.752Z,7.60
2023-02-05T10:01:53.686Z,7.63
2023-02-05T10:02:53.632Z,7.62
2023-02-05T10:03:53.577Z,7.59
2023-02-05T10:04:53.504Z,7.58
2023-02-05T10:05:53.446Z,7.63
2023-02-05T10:06:53.383Z,7.60
2023-02-05T10:07:53.314Z,7.55
2023-02-05T10:08:53.261Z,7.56
2023-02-05T10:09:53.196Z,7.62
2023-02-05T10:10:53.138Z,7.62
2023-02-05T10:11:53.079Z,7.55
2023-02-05T10:12:53.012Z,7.60
2023-02-05T10:13:52.952Z,7.62
2023-02-05T10:14:52.913Z,7.62
2023-02-05T10:15:52.933Z,7.60
2023-02-05T10:16:52.776Z,7.56
2023-02-05T10:17:52.723Z,7.56
2023-02-05T10:18:52.653Z,7.62
2023-02-05T10:19:52.589Z,7.58
2023-02-05T10:20:52.530Z,7.63
2023-02-05T10:21:52.459Z,7.69
2023-02-05T10:22:52.403Z,7.52
2023-02-05T10:24:13.330Z,7.59
2023-02-05T10:24:52.297Z,7.67
2023-02-05T10:25:52.223Z,7.62
2023-02-05T10:26:52.176Z,7.59
2023-02-05T10:27:52.112Z,7.60
2023-02-05T10:28:52.042Z,7.59
2023-02-05T10:29:51.977Z,7.58
2023-02-05T10:30:52.039Z,7.59
2023-02-05T10:31:51.948Z,7.59
2023-02-05T10:32:51.798Z,7.58
2023-02-05T10:33:51.745Z,7.59
2023-02-05T10:34:51.687Z,7.69
2023-02-05T10:35:51.617Z,7.59
2023-02-05T10:36:51.552Z,7.67
2023-02-05T10:37:51.494Z,7.53
2023-02-05T10:38:51.433Z,7.56
2023-02-05T10:39:51.366Z,7.55
2023-02-05T10:40:51.306Z,7.53
2023-02-05T10:41:51.243Z,7.59
2023-02-05T10:42:51.185Z,7.59
2023-02-05T10:43:51.131Z,7.59
2023-02-05T10:44:51.062Z,7.62
2023-02-05T10:45:50.999Z,7.59
2023-02-05T10:46:50.937Z,7.67
2023-02-05T10:47:50.886Z,7.59
2023-02-05T10:48:50.827Z,7.60
2023-02-05T10:49:50.764Z,7.59
2023-02-05T10:50:50.700Z,7.62
2023-02-05T10:51:50.640Z,7.62
2023-02-05T10:52:50.580Z,7.60
2023-02-05T10:53:50.512Z,7.63
2023-02-05T10:54:50.455Z,7.62
2023-02-05T10:55:50.399Z,7.67
2023-02-05T10:56:50.335Z,7.59
2023-02-05T10:57:50.271Z,7.66
2023-02-05T10:58:50.207Z,7.63
2023-02-05T10:59:50.149Z,7.66
2023-02-05T11:00:50.087Z,7.58
2023-02-05T11:01:50.068Z,7.69
2023-02-05T11:02:49.996Z,7.62
2023-02-05T11:03:49.906Z,7.56
2023-02-05T11:04:49.843Z,7.63
2023-02-05T11:05:49.786Z,7.59
2023-02-05T11:06:49.730Z,7.63
2023-02-05T11:07:49.662Z,7.62
2023-02-05T11:08:49.599Z,7.66
2023-02-05T11:10:17.128Z,7.59
2023-02-05T11:10:49.480Z,7.71
2023-02-05T11:11:49.420Z,7.69
2023-02-05T11:12:49.360Z,7.66
2023-02-05T11:13:49.292Z,7.66
2023-02-05T11:14:49.237Z,7.59
2023-02-05T11:15:49.189Z,7.66
2023-02-05T11:16:49.128Z,7.59
2023-02-05T11:17:49.050Z,7.69
2023-02-05T11:18:48.989Z,7.67
2023-02-05T11:19:48.926Z,7.67
2023-02-05T11:20:48.865Z,7.72
2023-02-05T11:21:48.807Z,7.63
2023-02-05T11:22:48.849Z,7.63
2023-02-05T11:23:48.680Z,7.66
2023-02-05T11:24:48.622Z,7.66
2023-02-05T11:25:48.681Z,7.62
2023-02-05T11:26:48.505Z,7.60
2023-02-05T11:27:48.439Z,7.69
2023-02-05T11:28:48.382Z,7.71
2023-02-05T11:29:48.317Z,7.60
2023-02-05T11:30:51.042Z,7.69
2023-02-05T11:31:48.300Z,7.63
2023-02-05T11:32:48.139Z,7.69
2023-02-05T11:33:48.075Z,7.69
2023-02-05T11:34:48.014Z,7.63
2023-02-05T11:35:47.951Z,7.63
2023-02-05T11:36:47.896Z,7.67
2023-02-05T11:37:47.920Z,7.62
2023-02-05T11:38:47.782Z,7.62
2023-02-05T11:39:47.710Z,7.63
2023-02-05T11:40:47.647Z,7.62
2023-02-05T11:41:47.586Z,7.63
2023-02-05T11:42:47.520Z,7.69
2023-02-05T11:43:47.467Z,7.63
2023-02-05T11:44:47.423Z,7.67
2023-02-05T11:45:47.352Z,7.62
2023-02-05T11:46:47.326Z,7.60
2023-02-05T11:47:47.220Z,7.63
2023-02-05T11:48:47.163Z,7.66
2023-02-05T11:49:47.102Z,7.69
2023-02-05T11:50:47.033Z,7.63
2023-02-05T11:51:46.984Z,7.62
2023-02-05T11:52:46.917Z,7.63
2023-02-05T11:53:46.856Z,7.59
2023-02-05T11:54:46.798Z,7.71
2023-02-05T11:55:46.733Z,7.66
2023-02-05T11:56:46.675Z,7.66
2023-02-05T11:57:46.665Z,7.69
2023-02-05T11:58:46.554Z,7.62
2023-02-05T11:59:46.492Z,7.72
2023-02-05T12:00:46.427Z,7.62
2023-02-05T12:01:46.440Z,7.60
2023-02-05T12:02:46.313Z,7.60
2023-02-05T12:03:46.246Z,7.63
2023-02-05T12:04:46.184Z,7.66
2023-02-05T12:05:46.123Z,7.66
2023-02-05T12:06:46.065Z,7.69
2023-02-05T12:07:46.009Z,7.75
2023-02-05T12:08:45.940Z,7.69
2023-02-05T12:09:45.882Z,7.60
2023-02-05T12:10:45.833Z,7.63
2023-02-05T12:11:45.763Z,7.63
2023-02-05T12:12:45.702Z,7.62
2023-02-05T12:13:45.755Z,7.59
2023-02-05T12:14:45.583Z,7.60
2023-02-05T12:15:45.524Z,7.63
2023-02-05T12:16:45.461Z,7.67
2023-02-05T12:17:45.402Z,7.63
2023-02-05T12:18:45.334Z,7.66
2023-02-05T12:19:45.272Z,7.63
2023-02-05T12:20:45.214Z,7.62
2023-02-05T12:21:45.156Z,7.67
2023-02-05T12:22:45.088Z,7.62
2023-02-05T12:23:45.029Z,7.69
2023-02-05T12:24:44.970Z,7.69
2023-02-05T12:25:44.911Z,7.71
2023-02-05T12:26:44.870Z,7.60
2023-02-05T12:27:44.804Z,7.78
2023-02-05T12:28:44.725Z,7.74
2023-02-05T12:29:44.667Z,7.60
2023-02-05T12:30:44.660Z,7.67
2023-02-05T12:31:44.585Z,7.72
2023-02-05T12:32:44.483Z,7.63
2023-02-05T12:33:44.421Z,7.66
2023-02-05T12:34:44.362Z,7.77
2023-02-05T12:35:44.300Z,7.75
2023-02-05T12:36:44.232Z,7.75
2023-02-05T12:37:44.176Z,7.69
2023-02-05T12:38:44.113Z,7.77
2023-02-05T12:39:44.055Z,7.66
2023-02-05T12:40:43.993Z,7.72
2023-02-05T12:41:43.932Z,7.72
2023-02-05T12:42:43.874Z,7.66
2023-02-05T12:43:43.809Z,7.75
2023-02-05T12:44:43.748Z,7.78
2023-02-05T12:45:43.693Z,7.66
2023-02-05T12:46:43.624Z,7.78
2023-02-05T12:47:43.566Z,7.71
2023-02-05T12:48:43.498Z,7.75
2023-02-05T12:49:45.023Z,7.69
2023-02-05T12:50:43.379Z,7.74
2023-02-05T12:51:43.320Z,7.78
2023-02-05T12:52:43.260Z,7.75
2023-02-05T12:53:43.193Z,7.75
2023-02-05T12:54:43.136Z,7.75
2023-02-05T12:55:43.077Z,7.77
2023-02-05T12:56:43.013Z,7.71
2023-02-05T12:57:42.950Z,7.77
2023-02-05T12:58:42.900Z,7.75
2023-02-05T12:59:42.841Z,7.72
2023-02-05T13:00:42.784Z,7.74
2023-02-05T13:01:42.714Z,7.75
2023-02-05T13:02:42.644Z,7.67
2023-02-05T13:03:42.588Z,7.74
2023-02-05T13:04:42.522Z,7.72
2023-02-05T13:05:42.468Z,7.75
2023-02-05T13:06:42.412Z,7.74
2023-02-05T13:07:42.342Z,7.74
2023-02-05T13:08:42.288Z,7.78
2023-02-05T13:09:42.232Z,7.78
2023-02-05T13:10:42.160Z,7.72
2023-02-05T13:11:42.104Z,7.74
2023-02-05T13:12:42.044Z,7.69
2023-02-05T13:13:41.981Z,7.72
2023-02-05T13:14:41.924Z,7.75
2023-02-05T13:15:41.868Z,7.82
2023-02-05T13:16:41.801Z,7.78
2023-02-05T13:17:41.737Z,7.71